2022年5月18日

时间 代码 天气 温度 能见度 乌云 METAR/SPECI
05:00
V
6 °C 24 km - 290°   290° 5 kt METAR CYYZ 180900Z 29005KT 15SM FEW170 06/03 A3003 RMK AS2 SLP172
04:00
V
7 °C 24 km - 340°   340° 6 kt METAR CYYZ 180800Z 34006KT 15SM FEW170 07/03 A3002 RMK AS1 SLP169
03:00
V
7 °C 24 km - 280°   280° 4 kt METAR CYYZ 180700Z 28004KT 15SM SKC 07/03 A3003 RMK SLP172
02:00
V
7 °C 24 km - 290°   290° 5 kt METAR CYYZ 180600Z 29005KT 15SM SKC 07/03 A3003 RMK SLP172
01:00
V
8 °C 24 km - 290°   290° 6 kt METAR CYYZ 180500Z 29006KT 15SM FEW180 08/04 A3002 RMK AS1 SLP169
00:00
V
9 °C 24 km 18.000 ft 320°   320° 12 kt METAR CYYZ 180400Z 32012KT 15SM BKN180 09/04 A3000 RMK AS5 SLP164

2022年5月17日

时间 代码 天气 温度 能见度 乌云 METAR/SPECI
23:00
V
11 °C 24 km - 300°   300° 12 kt METAR CYYZ 180300Z 30012KT 15SM FEW200 11/03 A3000 RMK CI2 SLP164
22:00
V
12 °C 24 km - 300°   300° 12 kt METAR CYYZ 180200Z 30012KT 15SM FEW200 12/03 A3000 RMK CI1 SLP162
21:00
V
13 °C 24 km - 300°   300° 12 21 kt METAR CYYZ 180100Z 30012G21KT 15SM SKC 13/03 A2997 RMK SLP154
20:00
V
14 °C 24 km - 300°   300° 19 24 kt METAR CYYZ 180000Z 30019G24KT 15SM FEW045 14/04 A2996 RMK SC2 SLP150 DENSITY ALT 600FT
19:00
V
15 °C 24 km - 290°   290° 15 22 kt METAR CYYZ 172300Z 29015G22KT 15SM FEW050 15/04 A2994 RMK CU2 SLP143 DENSITY ALT 800FT
18:00
V
16 °C 24 km 8.500 ft 300°   300° 16 kt METAR CYYZ 172200Z 30016KT 15SM SCT051 BKN085 16/04 A2992 RMK CU4AC1 SLP137 DENSITY ALT 900FT
17:00
V
16 °C 24 km 5.100 ft 300°   300° 17 24 kt METAR CYYZ 172100Z 30017G24KT 15SM BKN051 BKN092 16/04 A2991 RMK CU5AC2 SLP133 DENSITY ALT 800FT
16:00
V
16 °C 24 km 5.000 ft 300°   300° 17 kt METAR CYYZ 172000Z 30017KT 15SM VCSH BKN050 BKN082 16/05 A2989 RMK CU6AC1 SLP126 DENSITY ALT 900FT
15:00
V
15 °C 24 km 4.500 ft 280°   280° 19 24 kt METAR CYYZ 171900Z 28019G24KT 15SM BKN045 15/05 A2989 RMK CU7 SLP124 DENSITY ALT 800FT
14:00
V
15 °C 24 km 5.100 ft 290°   290° 14 22 kt METAR CYYZ 171800Z 29014G22KT 15SM BKN051 15/05 A2988 RMK CU7 SLP122 DENSITY ALT 800FT
13:00
V
14 °C 24 km 4.000 ft 300°   300° 16 22 kt METAR CYYZ 171700Z 30016G22KT 15SM BKN040 14/05 A2987 RMK CU7 SLP118 DENSITY ALT 700FT
12:00
V
15 °C 24 km 4.100 ft 310°   310° 16 25 kt METAR CYYZ 171600Z 31016G25KT 15SM BKN041 15/06 A2986 RMK CU6 SLP114 DENSITY ALT 800FT
11:00
V
14 °C 24 km 3.500 ft 290°   290° 18 27 kt METAR CYYZ 171500Z 29018G27KT 15SM BKN035 14/05 A2984 RMK CU6 SLP108 DENSITY ALT 700FT
10:00
V
13 °C 24 km - 290°   290° 18 25 kt METAR CYYZ 171400Z 29018G25KT 15SM SCT031 13/05 A2983 RMK CU4 SLP106 DENSITY ALT 600FT
09:00
V
11 °C 24 km - 300°   300° 16 22 kt METAR CYYZ 171300Z 30016G22KT 15SM FEW050 11/05 A2982 RMK SC1 SC TR SLP100
08:00
V
9 °C 24 km - 300°   300° 14 kt METAR CYYZ 171200Z 30014KT 15SM FEW050 09/04 A2979 RMK SC1 SC TR SLP092
07:00
V
8 °C 24 km - 290°   290° 14 20 kt METAR CYYZ 171100Z 29014G20KT 15SM FEW040 08/03 A2978 RMK SC1 SC TR SLP088
06:00
V
7 °C 24 km - 290°   290° 13 kt METAR CYYZ 171000Z 29013KT 15SM FEW040 FEW180 07/03 A2976 RMK SC1AC1 SC TR AC TR SLP081
05:00
V
8 °C 24 km - 290°   290° 13 kt METAR CYYZ 170900Z 29013KT 15SM FEW180 08/02 A2975 RMK AC1 SLP077
04:00
V
10 °C 24 km - 300°   300° 20 26 kt METAR CYYZ 170800Z 30020G26KT 15SM FEW060 FEW100 10/01 A2974 RMK SC1AC1 SLP075
03:00
V
12 °C 24 km 10.000 ft 300°   300° 20 25 kt METAR CYYZ 170700Z 30020G25KT 15SM SCT075 BKN100 12/03 A2973 RMK AC4AC3 SLP071 DENSITY ALT 600FT
02:00
V
13 °C 24 km 10.000 ft 310°   310° 16 22 kt METAR CYYZ 170600Z 31016G22KT 15SM BKN100 13/04 A2973 RMK AC7 SLP071 DENSITY ALT 700FT
01:00
V
14 °C 24 km 10.000 ft 300°   300° 11 17 kt METAR CYYZ 170500Z 30011G17KT 15SM BKN100 14/06 A2973 RMK AC5 SLP072 DENSITY ALT 800FT
00:00
V
15 °C 24 km 9.500 ft 290°   290° 9 kt METAR CYYZ 170400Z 29009KT 15SM BKN095 15/08 A2973 RMK AC7 SLP070 DENSITY ALT 900FT

2022年5月16日

时间 代码 天气 温度 能见度 乌云 METAR/SPECI
23:00
V
15 °C 24 km 12.000 ft 280°   280° 7 kt METAR CYYZ 170300Z 28007KT 15SM SCT090 BKN120 15/08 A2973 RMK AC4AC3 SLP072 DENSITY ALT 1000FT
22:00
V
15 °C 24 km 11.000 ft 290°   290° 3 kt METAR CYYZ 170200Z 29003KT 220V010 15SM FEW040 BKN110 15/08 A2973 RMK CU1AC7 CU TR SLP070 DENSITY ALT 900FT
21:00
V
14 °C 24 km - 050°   050° 4 kt METAR CYYZ 170100Z 05004KT 15SM SCT110 SCT250 14/07 A2971 RMK AC3CI1 SLP065 DENSITY ALT 900FT
20:00
V
17 °C 24 km 11.000 ft 360°   360° 6 kt METAR CYYZ 170000Z 36006KT 15SM FEW040 BKN110 17/08 A2970 RMK CU1AC5 CU TR SLP060 DENSITY ALT 1200FT
19:00
V
17 °C 24 km - 360°   360° 13 kt METAR CYYZ 162300Z 36013KT 300V010 15SM FEW055 FEW100 17/08 A2969 RMK SC1AC1 SLP055 DENSITY ALT 1300FT
18:00
V
18 °C 24 km 23.000 ft 340°   340° 13 19 kt METAR CYYZ 162200Z 34013G19KT 300V010 15SM SCT039 BKN230 18/09 A2968 RMK CU4CI2 SLP053 DENSITY ALT 1300FT
17:00
V
17 °C 24 km 22.000 ft 310°   310° 13 kt METAR CYYZ 162100Z 31013KT 15SM SCT038 BKN220 17/09 A2967 RMK CU3CI2 SLP049 DENSITY ALT 1300FT
16:00
V
15 °C 24 km 3.200 ft 340°   340° 16 kt METAR CYYZ 162000Z 34016KT 15SM BKN032 BKN180 15/08 A2967 RMK CU6AC1 SLP049 DENSITY ALT 1000FT
15:00
V
15 °C 24 km 8.000 ft 340°   340° 16 22 kt METAR CYYZ 161900Z 34016G22KT 15SM SCT018 BKN080 BKN180 15/10 A2967 RMK CU4AC2AC1 SLP049 DENSITY ALT 1000FT
14:10
V
12 °C 19 km 3.300 ft 350°   350° 17 kt METAR CYYZ 161810Z 35017KT 12SM SCT016 BKN033 BKN070 12/11 A2966 RMK CF3SC3AC1 SLP047 DENSITY ALT 700FT
14:00
V
12 °C 16 km 4.500 ft 360°   360° 14 kt METAR CYYZ 161800Z 36014KT 10SM -RA SCT013 BKN045 BKN068 12/09 A2966 RMK CF3SC3AC1 WIND ESTD SLP046 DENSITY ALT 700FT
13:00
M
12 °C 13 km 1.300 ft 340°   340° 15 kt METAR CYYZ 161700Z 34015KT 8SM -RA BKN013 BKN040 OVC060 12/12 A2966 RMK SC6SC1SC1 SLP045 DENSITY ALT 700FT
12:00
V
13 °C 10 km 3.000 ft 330°   330° 16 kt METAR CYYZ 161600Z 33016KT 6SM -RA FEW015 BKN030 OVC065 13/12 A2967 RMK CF1SC5SC2 SLP050 DENSITY ALT 700FT
11:53
V
13 °C 10 km 3.000 ft 340°   340° 12 19 kt METAR CYYZ 161553Z 34012G19KT 6SM -RA FEW015 BKN030 OVC063 13/12 A2968 RMK CF1SC5SC2 SLP051 DENSITY ALT 800FT
11:22
V
13 °C 24 km 5.400 ft 340°   340° 11 kt METAR CYYZ 161522Z 34011KT 15SM FEW015 BKN054 OVC100 13/13 A2968 RMK CF1SC5AC2 SLP051 DENSITY ALT 800FT
11:00
V
13 °C 19 km 7.000 ft 350°   350° 13 kt METAR CYYZ 161500Z 35013KT 12SM -RA FEW015 SCT035 OVC070 13/13 A2966 RMK CF1SC3AC4 SLP045 DENSITY ALT 800FT
10:00
V
14 °C 19 km 6.500 ft 330°   330° 5 kt METAR CYYZ 161400Z 33005KT 300V360 12SM -RA FEW030 BKN065 OVC100 14/12 A2969 RMK SC1SC6AC1 SLP054 DENSITY ALT 800FT
09:43
V
13 °C 24 km 6.500 ft 350°   350° 9 kt METAR CYYZ 161343Z 35009KT 15SM -RA FEW030 BKN065 OVC120 13/12 A2968 RMK SC1SC6AC1 SLP052 DENSITY ALT 800FT
09:00
V
13 °C 24 km 3.800 ft 050°   050° 5 kt METAR CYYZ 161300Z 05005KT 030V160 15SM FEW030CB BKN038 OVC100 13/10 A2970 RMK CB2SC3AC3 CB NE MOVG N PRESRR SLP059 DENSITY ALT 800FT
08:45
V
12 °C 10 km 6.000 ft 010°   010° 22 kt METAR CYYZ 161245Z 01022KT 280V040 6SM R06R/5000VP6000FT/U -TSRA SCT025CB BKN060 OVC092 12/11 A2966 RMK CB3SC3AC2 CB N MOVG NE OCNL LTGIC PRESFR SLP044 DENSITY ALT 700FT
08:38
I
13 °C 2,0 km 3.000 ft Var   Var 8 16 kt METAR CYYZ 161238Z VRB08G16KT 1 1/4SM R06R/5000VP6000FT/D TSRA BKN030CB OVC050 13/09 A2971 RMK CB6SC2 OCNL LTGIC SLP063 DENSITY ALT 800FT
08:31
V
14 °C 10 km 5.000 ft 240°   240° 12 18 kt METAR CYYZ 161231Z 24012G18KT 220V320 6SM -TSRA FEW030CB OVC050 14/09 A2976 RMK CB2SC6 CB SW MOVG N OCNL LTGCG PRESRR SLP077 DENSITY ALT 800FT
08:00
V
14 °C 24 km 5.000 ft 350°   350° 12 18 kt METAR CYYZ 161200Z 35012G18KT 15SM VCSH FEW030 BKN050 OVC180 14/09 A2971 RMK SC1SC4AC3 VIS LWR W-N SLP062 DENSITY ALT 900FT
07:00
V
14 °C 24 km 7.500 ft 340°   340° 12 kt METAR CYYZ 161100Z 34012KT 15SM BKN075 BKN220 14/10 A2972 RMK AC5CI2 SLP065 DENSITY ALT 800FT
06:16
V
14 °C 24 km 7.400 ft 340°   340° 11 18 kt METAR CYYZ 161016Z 34011G18KT 15SM FEW015 BKN074 OVC140 14/12 A2971 RMK SF1AC5AC2 SLP063 DENSITY ALT 900FT
06:00
V
15 °C 24 km 7.400 ft 360°   360° 14 19 kt METAR CYYZ 161000Z 36014G19KT 15SM -RA FEW015 BKN074 BKN140 OVC220 15/12 A2971 RMK CF1AC5AC2CI1 CF TR SLP062 DENSITY ALT 900FT
较旧的数据

下载我们的应用程序

在您的手机和平板电脑上轻松访问所有航空天气。
有许多网站上没有的功能,如离线支持和个人机场列表。

Studio Eveline

Benalmádena
España